TAF Text Data
IDs:
Format:
Raw Decoded Include METAR

Data at: 0557 UTC 18 Oct 2018

KMAF 180553Z AUTO 05008KT 2 1/2SM BR OVC005 07/07 A3040 RMK AO2 RAE00B12E21 CIG 002V008 SLP281 P0001 60003 T00670067 10078 20067 400940061 58005

KMAF 180524Z 1806/1906 05009KT 3SM -RADZ BR OVC007
  TEMPO 1806/1810 1SM -RADZ BR OVC003